createdAt,value
2023-01-09T00:04:59.859Z,8.02
2023-01-09T00:10:02.648Z,8.11
2023-01-09T00:15:06.737Z,8.18
2023-01-09T00:20:12.286Z,8.09
2023-01-09T00:25:15.125Z,8.02
2023-01-09T00:30:18.168Z,8.09
2023-01-09T00:35:25.251Z,8.07
2023-01-09T00:40:28.082Z,7.95
2023-01-09T00:45:31.374Z,7.76
2023-01-09T00:50:36.684Z,7.79
2023-01-09T00:55:41.326Z,7.63
2023-01-09T01:00:44.263Z,7.70
2023-01-09T01:06:05.889Z,7.65
2023-01-09T01:11:11.138Z,7.65
2023-01-09T01:16:14.588Z,7.63
2023-01-09T01:21:19.025Z,7.59
2023-01-09T01:26:21.787Z,7.70
2023-01-09T01:31:24.592Z,7.36
2023-01-09T01:36:28.715Z,7.39
2023-01-09T01:41:31.579Z,7.23
2023-01-09T01:46:35.517Z,6.95
2023-01-09T01:51:42.543Z,6.67
2023-01-09T01:56:47.875Z,6.48
2023-01-09T02:01:54.487Z,6.10
2023-01-09T02:07:01.652Z,6.31
2023-01-09T02:12:17.462Z,5.95
2023-01-09T02:17:32.270Z,5.63
2023-01-09T02:22:43.571Z,5.74
2023-01-09T02:28:20.560Z,5.53
2023-01-09T02:33:37.780Z,5.66
2023-01-09T02:38:49.225Z,5.63
2023-01-09T02:44:11.708Z,5.76
2023-01-09T02:49:18.122Z,5.88
2023-01-09T02:54:38.596Z,5.87
2023-01-09T02:59:57.641Z,5.84
2023-01-09T03:05:10.682Z,5.47
2023-01-09T03:10:18.867Z,5.50
2023-01-09T03:15:25.603Z,5.48
2023-01-09T03:20:31.388Z,5.57
2023-01-09T03:25:34.930Z,5.73
2023-01-09T03:30:37.914Z,5.49
2023-01-09T03:35:42.066Z,5.73
2023-01-09T03:40:44.968Z,5.57
2023-01-09T03:45:47.767Z,5.66
2023-01-09T03:50:52.641Z,5.61
2023-01-09T03:55:57.406Z,5.50
2023-01-09T04:01:02.150Z,5.47
2023-01-09T04:06:06.919Z,5.47
2023-01-09T04:11:09.695Z,5.35
2023-01-09T04:16:12.543Z,5.26
2023-01-09T04:21:16.691Z,5.28
2023-01-09T04:26:19.493Z,5.30
2023-01-09T04:31:22.276Z,5.31
2023-01-09T04:36:26.457Z,5.54
2023-01-09T04:41:46.765Z,5.58
2023-01-09T04:46:50.187Z,5.61
2023-01-09T04:51:54.656Z,5.33
2023-01-09T04:56:57.405Z,5.28
2023-01-09T05:02:01.284Z,5.47
2023-01-09T05:07:05.608Z,5.61
2023-01-09T05:12:08.655Z,5.39
2023-01-09T05:17:11.356Z,5.26
2023-01-09T05:22:15.565Z,5.18
2023-01-09T05:27:18.350Z,5.24
2023-01-09T05:32:21.142Z,5.61
2023-01-09T05:37:25.248Z,5.60
2023-01-09T05:42:28.072Z,5.47
2023-01-09T05:47:30.857Z,5.32
2023-01-09T05:52:35.021Z,4.90
2023-01-09T05:57:37.763Z,5.28
2023-01-09T06:02:40.674Z,5.44
2023-01-09T06:07:44.880Z,5.33
2023-01-09T06:12:51.429Z,5.20
2023-01-09T06:17:54.313Z,5.40
2023-01-09T06:22:58.450Z,5.71
2023-01-09T06:28:01.211Z,5.53
2023-01-09T06:33:03.958Z,5.57
2023-01-09T06:38:08.044Z,5.31
2023-01-09T06:43:10.827Z,5.58
2023-01-09T06:48:13.619Z,5.48
2023-01-09T06:53:17.725Z,5.57
2023-01-09T06:58:20.722Z,5.34
2023-01-09T07:03:23.524Z,5.54
2023-01-09T07:08:27.626Z,5.43
2023-01-09T07:13:30.402Z,5.57
2023-01-09T07:18:33.188Z,5.45
2023-01-09T07:23:37.376Z,5.59
2023-01-09T07:28:40.136Z,5.55
2023-01-09T07:33:42.935Z,5.70
2023-01-09T07:38:47.194Z,5.58
2023-01-09T07:43:49.941Z,5.56
2023-01-09T07:48:52.779Z,5.35
2023-01-09T07:53:56.926Z,5.55
2023-01-09T07:58:59.621Z,5.53
2023-01-09T08:04:02.370Z,5.33
2023-01-09T08:09:06.502Z,5.41
2023-01-09T08:14:09.299Z,5.50
2023-01-09T08:19:12.139Z,5.67
2023-01-09T08:24:16.380Z,5.77
2023-01-09T08:29:19.176Z,5.71
2023-01-09T08:34:22.069Z,5.72
2023-01-09T08:39:26.256Z,5.54
2023-01-09T08:44:46.689Z,5.44
2023-01-09T08:49:49.472Z,5.35
2023-01-09T08:54:53.604Z,5.37
2023-01-09T08:59:56.466Z,5.48
2023-01-09T09:04:59.384Z,5.41
2023-01-09T09:10:03.539Z,5.30
2023-01-09T09:15:23.419Z,5.32
2023-01-09T09:20:28.871Z,5.71
2023-01-09T09:25:33.406Z,5.80
2023-01-09T09:30:36.367Z,5.85
2023-01-09T09:35:39.146Z,6.15
2023-01-09T09:41:04.981Z,6.65
2023-01-09T09:46:16.194Z,7.01
2023-01-09T09:51:50.043Z,7.10
2023-01-09T09:56:57.700Z,6.63
2023-01-09T10:02:03.534Z,6.70
2023-01-09T10:07:09.776Z,7.53
2023-01-09T10:12:28.087Z,7.97
2023-01-09T10:17:50.964Z,8.12
2023-01-09T10:22:58.280Z,7.97
2023-01-09T10:28:19.687Z,8.43
2023-01-09T10:33:37.845Z,8.20
2023-01-09T10:38:44.272Z,7.30
2023-01-09T10:43:54.294Z,7.41
2023-01-09T10:49:01.209Z,7.34
2023-01-09T10:54:12.207Z,8.03
2023-01-09T10:59:16.426Z,8.11
2023-01-09T11:04:24.731Z,6.94
2023-01-09T11:09:27.601Z,7.04
2023-01-09T11:14:32.183Z,6.87
2023-01-09T11:19:35.009Z,6.80
2023-01-09T11:24:37.805Z,6.85
2023-01-09T11:29:42.531Z,6.87
2023-01-09T11:34:47.091Z,6.89
2023-01-09T11:39:49.932Z,6.87
2023-01-09T11:45:01.554Z,6.61
2023-01-09T11:50:18.713Z,6.39
2023-01-09T11:55:22.560Z,6.77
2023-01-09T12:00:31.175Z,6.47
2023-01-09T12:05:45.040Z,6.61
2023-01-09T12:11:10.268Z,6.59
2023-01-09T12:16:25.334Z,6.84
2023-01-09T12:21:35.433Z,6.72
2023-01-09T12:26:50.371Z,6.90
2023-01-09T12:32:26.406Z,6.70
2023-01-09T12:37:57.470Z,5.80
2023-01-09T12:43:09.462Z,5.88
2023-01-09T12:48:27.584Z,5.89
2023-01-09T12:53:35.209Z,5.87
2023-01-09T12:58:44.544Z,5.18
2023-01-09T13:03:56.061Z,5.72
2023-01-09T13:09:14.346Z,5.80
2023-01-09T13:14:23.105Z,6.28
2023-01-09T13:19:32.474Z,6.05
2023-01-09T13:24:40.932Z,5.99
2023-01-09T13:29:46.216Z,6.38
2023-01-09T13:34:54.453Z,6.56
2023-01-09T13:39:59.485Z,6.37
2023-01-09T13:45:12.587Z,6.37
2023-01-09T13:50:28.367Z,5.95
2023-01-09T13:55:37.121Z,5.98
2023-01-09T14:00:55.313Z,6.06
2023-01-09T14:06:17.526Z,6.17
2023-01-09T14:11:23.311Z,5.89
2023-01-09T14:16:27.579Z,6.34
2023-01-09T14:21:46.672Z,6.32
2023-01-09T14:26:55.252Z,6.12
2023-01-09T14:32:33.927Z,6.26
2023-01-09T14:37:40.905Z,6.00
2023-01-09T14:42:47.490Z,6.07
2023-01-09T14:47:56.421Z,6.21
2023-01-09T14:53:05.579Z,6.41
2023-01-09T14:58:12.306Z,5.77
2023-01-09T15:03:15.302Z,5.97
2023-01-09T15:08:23.406Z,6.12
2023-01-09T15:13:36.255Z,5.72
2023-01-09T15:18:43.914Z,5.84
2023-01-09T15:23:48.114Z,5.87
2023-01-09T15:28:53.593Z,6.04
2023-01-09T15:33:56.652Z,5.74
2023-01-09T15:39:01.185Z,5.77
2023-01-09T15:44:06.070Z,5.86
2023-01-09T15:49:12.342Z,5.68
2023-01-09T15:54:18.574Z,5.62
2023-01-09T15:59:27.916Z,5.54
2023-01-09T16:04:30.739Z,5.26
2023-01-09T16:09:37.793Z,5.45
2023-01-09T16:14:45.662Z,5.49
2023-01-09T16:19:50.035Z,5.62
2023-01-09T16:24:55.775Z,5.54
2023-01-09T16:29:59.732Z,5.37
2023-01-09T16:35:06.075Z,5.75
2023-01-09T16:40:32.141Z,5.82
2023-01-09T16:45:37.433Z,5.62
2023-01-09T16:50:40.810Z,5.65
2023-01-09T16:55:45.436Z,5.56
2023-01-09T17:00:48.868Z,5.51
2023-01-09T17:05:53.933Z,5.75
2023-01-09T17:10:58.415Z,5.35
2023-01-09T17:16:01.385Z,5.42
2023-01-09T17:21:04.253Z,5.46
2023-01-09T17:26:36.667Z,5.21
2023-01-09T17:31:39.547Z,5.02
2023-01-09T17:36:42.433Z,5.47
2023-01-09T17:41:46.570Z,5.41
2023-01-09T17:46:49.381Z,5.31
2023-01-09T17:51:52.179Z,5.55
2023-01-09T17:56:56.423Z,5.54
2023-01-09T18:01:59.266Z,5.58
2023-01-09T18:07:02.037Z,5.48
2023-01-09T18:12:06.690Z,5.31
2023-01-09T18:17:13.016Z,5.41
2023-01-09T18:22:15.741Z,5.18
2023-01-09T18:27:19.941Z,5.01
2023-01-09T18:32:22.758Z,4.91
2023-01-09T18:37:25.587Z,5.17
2023-01-09T18:42:29.641Z,4.78
2023-01-09T18:47:32.419Z,4.95
2023-01-09T18:52:35.217Z,5.02
2023-01-09T18:57:39.501Z,4.95
2023-01-09T19:02:42.340Z,5.02
2023-01-09T19:07:45.106Z,5.26
2023-01-09T19:12:49.242Z,4.98
2023-01-09T19:17:52.064Z,4.78
2023-01-09T19:22:56.752Z,4.84
2023-01-09T19:28:01.176Z,5.17
2023-01-09T19:33:03.944Z,5.20
2023-01-09T19:38:06.946Z,5.07
2023-01-09T19:43:11.117Z,5.09
2023-01-09T19:48:16.753Z,5.13
2023-01-09T19:53:19.523Z,5.22
2023-01-09T19:58:23.660Z,5.32
2023-01-09T20:03:26.614Z,5.23
2023-01-09T20:08:29.370Z,5.25
2023-01-09T20:13:33.727Z,4.83
2023-01-09T20:18:36.636Z,4.86
2023-01-09T20:23:39.390Z,4.90
2023-01-09T20:28:43.772Z,4.93
2023-01-09T20:33:47.706Z,5.08
2023-01-09T20:38:50.719Z,4.92
2023-01-09T20:43:56.706Z,5.14
2023-01-09T20:49:03.011Z,4.89
2023-01-09T20:54:14.997Z,5.04
2023-01-09T20:59:21.996Z,5.22
2023-01-09T21:04:24.855Z,5.23
2023-01-09T21:09:29.142Z,5.12
2023-01-09T21:14:33.311Z,5.04
2023-01-09T21:19:41.904Z,5.05
2023-01-09T21:24:44.754Z,4.62
2023-01-09T21:29:48.855Z,4.91
2023-01-09T21:34:51.627Z,4.75
2023-01-09T21:39:54.461Z,4.73
2023-01-09T21:45:16.162Z,4.87
2023-01-09T21:50:19.046Z,4.90
2023-01-09T21:55:21.799Z,4.73
2023-01-09T22:00:27.832Z,4.95
2023-01-09T22:05:30.564Z,5.21
2023-01-09T22:10:33.315Z,5.14
2023-01-09T22:15:37.517Z,4.60
2023-01-09T22:20:40.463Z,4.80
2023-01-09T22:25:43.306Z,4.77
2023-01-09T22:30:47.678Z,4.91
2023-01-09T22:35:50.440Z,4.87
2023-01-09T22:40:53.154Z,5.15
2023-01-09T22:46:01.828Z,4.94
2023-01-09T22:51:06.596Z,5.40
2023-01-09T22:56:13.006Z,5.08
2023-01-09T23:01:17.080Z,5.20
2023-01-09T23:06:21.570Z,5.00
2023-01-09T23:11:44.550Z,5.38
2023-01-09T23:16:48.684Z,5.08
2023-01-09T23:21:51.455Z,5.12
2023-01-09T23:26:54.917Z,4.90
2023-01-09T23:31:59.109Z,5.17
2023-01-09T23:37:01.837Z,5.42
2023-01-09T23:42:22.862Z,5.07
2023-01-09T23:47:26.910Z,4.94
2023-01-09T23:52:29.621Z,5.14
2023-01-09T23:57:32.369Z,4.68
